createdAt,value
2018-09-09T00:01:43.131Z,72.61
2018-09-09T00:04:10.868Z,72.21
2018-09-09T00:06:40.011Z,72.11
2018-09-09T00:09:08.122Z,72.43
2018-09-09T00:11:35.865Z,72.95
2018-09-09T00:14:04.776Z,73.36
2018-09-09T00:16:33.334Z,73.62
2018-09-09T00:19:00.867Z,73.97
2018-09-09T00:21:29.559Z,74.31
2018-09-09T00:23:57.541Z,74.47
2018-09-09T00:26:26.455Z,74.56
2018-09-09T00:28:54.792Z,74.80
2018-09-09T00:31:23.464Z,74.54
2018-09-09T00:33:51.789Z,74.58
2018-09-09T00:36:20.116Z,74.62
2018-09-09T00:38:48.450Z,74.67
2018-09-09T00:41:16.777Z,75.03
2018-09-09T00:43:45.109Z,75.22
2018-09-09T00:46:13.447Z,75.00
2018-09-09T00:48:41.774Z,75.19
2018-09-09T00:51:10.872Z,74.76
2018-09-09T00:53:40.850Z,74.21
2018-09-09T00:56:07.516Z,73.99
2018-09-09T00:58:35.868Z,74.15
2018-09-09T01:01:03.599Z,74.24
2018-09-09T01:03:31.932Z,74.48
2018-09-09T01:06:00.833Z,74.70
2018-09-09T01:08:29.154Z,74.76
2018-09-09T01:10:57.487Z,74.62
2018-09-09T01:13:25.227Z,74.41
2018-09-09T01:15:54.386Z,74.27
2018-09-09T01:18:22.712Z,74.10
2018-09-09T01:20:51.032Z,73.45
2018-09-09T01:23:18.781Z,73.16
2018-09-09T01:25:47.109Z,72.76
2018-09-09T01:28:16.073Z,72.76
2018-09-09T01:30:44.711Z,72.74
2018-09-09T01:33:13.617Z,73.18
2018-09-09T01:35:41.946Z,73.45
2018-09-09T01:38:10.259Z,74.38
2018-09-09T01:40:38.589Z,75.27
2018-09-09T01:43:06.346Z,76.19
2018-09-09T01:45:35.264Z,76.36
2018-09-09T01:48:03.028Z,76.25
2018-09-09T01:50:32.185Z,75.87
2018-09-09T01:52:59.701Z,75.19
2018-09-09T01:55:28.619Z,74.76
2018-09-09T01:57:56.356Z,74.53
2018-09-09T02:00:24.942Z,74.53
2018-09-09T02:02:53.617Z,74.32
2018-09-09T02:05:21.975Z,74.23
2018-09-09T02:07:50.307Z,74.16
2018-09-09T02:10:18.062Z,74.52
2018-09-09T02:12:46.393Z,75.04
2018-09-09T02:15:15.527Z,75.82
2018-09-09T02:17:44.241Z,75.94
2018-09-09T02:20:11.994Z,76.31
2018-09-09T02:22:40.914Z,76.43
2018-09-09T02:25:09.238Z,76.24
2018-09-09T02:27:36.985Z,76.66
2018-09-09T02:30:05.301Z,77.33
2018-09-09T02:32:34.212Z,77.59
2018-09-09T02:35:02.577Z,77.57
2018-09-09T02:37:30.905Z,77.59
2018-09-09T02:39:59.249Z,77.57
2018-09-09T02:42:27.579Z,77.82
2018-09-09T02:44:55.347Z,77.70
2018-09-09T02:47:24.255Z,77.37
2018-09-09T02:49:52.582Z,76.63
2018-09-09T02:52:20.921Z,76.03
2018-09-09T02:54:49.260Z,75.69
2018-09-09T02:57:16.990Z,75.39
2018-09-09T02:59:45.909Z,75.11
2018-09-09T03:02:14.377Z,74.95
2018-09-09T03:04:42.721Z,74.72
2018-09-09T03:07:10.474Z,74.97
2018-09-09T03:09:39.387Z,75.22
2018-09-09T03:12:07.722Z,76.05
2018-09-09T03:14:35.462Z,76.76
2018-09-09T03:17:03.789Z,76.79
2018-09-09T03:19:32.692Z,76.49
2018-09-09T03:22:01.026Z,76.72
2018-09-09T03:24:28.767Z,76.51
2018-09-09T03:26:57.097Z,76.71
2018-09-09T03:29:25.446Z,76.68
2018-09-09T03:31:54.334Z,76.54
2018-09-09T03:34:22.671Z,76.50
2018-09-09T03:36:50.995Z,76.30
2018-09-09T03:39:19.328Z,75.69
2018-09-09T03:41:47.651Z,75.50
2018-09-09T03:44:15.978Z,75.69
2018-09-09T03:46:43.737Z,75.53
2018-09-09T03:49:12.642Z,75.10
2018-09-09T03:51:40.385Z,74.75
2018-09-09T03:54:09.296Z,74.64
2018-09-09T03:56:37.054Z,74.50
2018-09-09T03:59:05.958Z,74.21
2018-09-09T04:01:34.314Z,74.53
2018-09-09T04:04:02.139Z,74.93
2018-09-09T04:06:31.046Z,74.82
2018-09-09T04:08:59.368Z,75.17
2018-09-09T04:11:27.681Z,75.58
2018-09-09T04:13:55.436Z,75.87
2018-09-09T04:16:24.350Z,76.18
2018-09-09T04:18:52.693Z,76.41
2018-09-09T04:21:21.023Z,76.71
2018-09-09T04:23:48.761Z,76.89
2018-09-09T04:26:17.678Z,76.71
2018-09-09T04:28:46.019Z,76.95
2018-09-09T04:31:14.363Z,76.84
2018-09-09T04:33:42.699Z,77.25
2018-09-09T04:36:10.442Z,76.65
2018-09-09T04:38:38.770Z,76.50
2018-09-09T04:41:07.099Z,76.41
2018-09-09T04:43:36.000Z,75.88
2018-09-09T04:46:03.749Z,75.33
2018-09-09T04:48:32.073Z,74.90
2018-09-09T04:51:00.981Z,74.66
2018-09-09T04:53:29.306Z,74.54
2018-09-09T04:55:57.776Z,74.58
2018-09-09T04:58:25.514Z,74.37
2018-09-09T05:00:54.447Z,74.21
2018-09-09T05:03:22.192Z,74.12
2018-09-09T05:05:50.529Z,74.15
2018-09-09T05:08:19.447Z,73.94
2018-09-09T05:10:47.769Z,74.15
2018-09-09T05:13:16.086Z,74.06
2018-09-09T05:15:44.409Z,74.04
2018-09-09T05:18:12.744Z,73.93
2018-09-09T05:20:41.081Z,73.64
2018-09-09T05:23:09.401Z,73.40
2018-09-09T05:25:37.714Z,72.83
2018-09-09T05:28:06.030Z,71.96
2018-09-09T05:30:34.372Z,71.38
2018-09-09T05:33:02.764Z,70.53
2018-09-09T05:35:31.094Z,70.08
2018-09-09T05:37:59.413Z,69.36
2018-09-09T05:40:27.172Z,69.36
2018-09-09T05:42:56.076Z,69.54
2018-09-09T05:45:24.403Z,69.64
2018-09-09T05:47:53.359Z,69.77
2018-09-09T05:50:21.671Z,69.94
2018-09-09T05:52:49.417Z,69.95
2018-09-09T05:55:17.970Z,69.90
2018-09-09T05:57:46.906Z,69.96
2018-09-09T06:00:14.627Z,70.02
2018-09-09T06:02:43.526Z,69.94
2018-09-09T06:05:11.875Z,70.05
2018-09-09T06:07:40.563Z,70.10
2018-09-09T06:10:08.889Z,69.50
2018-09-09T06:12:37.199Z,68.88
2018-09-09T06:15:05.526Z,68.57
2018-09-09T06:17:33.894Z,68.72
2018-09-09T06:20:02.202Z,69.07
2018-09-09T06:22:30.880Z,69.14
2018-09-09T06:24:58.634Z,69.29
2018-09-09T06:27:26.948Z,69.31
2018-09-09T06:29:55.268Z,69.48
2018-09-09T06:32:24.174Z,69.51
2018-09-09T06:34:52.509Z,69.38
2018-09-09T06:37:20.279Z,69.36
2018-09-09T06:39:49.151Z,69.28
2018-09-09T06:42:16.893Z,69.21
2018-09-09T06:44:45.808Z,69.09
2018-09-09T06:47:14.139Z,68.85
2018-09-09T06:49:42.468Z,68.88
2018-09-09T06:52:10.240Z,68.88
2018-09-09T06:54:39.139Z,68.76
2018-09-09T06:57:07.473Z,68.57
2018-09-09T06:59:35.826Z,68.43
2018-09-09T07:02:04.161Z,68.27
2018-09-09T07:04:32.506Z,68.05
2018-09-09T07:07:00.838Z,68.04
2018-09-09T07:09:29.321Z,68.16
2018-09-09T07:11:57.684Z,68.11
2018-09-09T07:14:25.972Z,68.08
2018-09-09T07:16:54.318Z,67.84
2018-09-09T07:19:22.024Z,67.77
2018-09-09T07:21:51.473Z,67.71
2018-09-09T07:24:19.812Z,67.76
2018-09-09T07:26:48.133Z,67.68
2018-09-09T07:29:15.890Z,67.75
2018-09-09T07:31:44.250Z,67.75
2018-09-09T07:34:13.128Z,67.80
2018-09-09T07:36:40.948Z,67.92
2018-09-09T07:39:09.282Z,67.83
2018-09-09T07:41:38.205Z,67.01
2018-09-09T07:44:05.958Z,66.68
2018-09-09T07:46:34.886Z,66.42
2018-09-09T07:49:03.220Z,66.36
2018-09-09T07:51:31.851Z,66.07
2018-09-09T07:53:59.950Z,65.71
2018-09-09T07:56:29.056Z,65.43
2018-09-09T07:58:59.558Z,64.86
2018-09-09T08:01:26.393Z,64.36
2018-09-09T08:03:55.349Z,64.31
2018-09-09T08:06:23.676Z,63.89
2018-09-09T08:08:52.018Z,63.66
2018-09-09T08:11:20.387Z,63.36
2018-09-09T08:13:48.183Z,63.22
2018-09-09T08:16:17.097Z,63.16
2018-09-09T08:18:45.436Z,63.02
2018-09-09T08:21:13.791Z,62.97
2018-09-09T08:23:41.815Z,62.67
2018-09-09T08:26:09.851Z,62.03
2018-09-09T08:28:38.755Z,62.09
2018-09-09T08:31:07.081Z,61.12
2018-09-09T08:33:35.397Z,61.27
2018-09-09T08:36:04.860Z,61.24
2018-09-09T08:38:34.532Z,60.63
2018-09-09T08:41:07.653Z,61.21
2018-09-09T08:43:35.978Z,61.24
2018-09-09T08:46:04.343Z,61.07
2018-09-09T08:48:32.666Z,60.46
2018-09-09T08:51:01.018Z,59.87
2018-09-09T08:53:28.745Z,60.24
2018-09-09T08:55:57.073Z,60.32
2018-09-09T08:58:25.992Z,60.45
2018-09-09T09:00:53.752Z,60.18
2018-09-09T09:03:22.888Z,59.89
2018-09-09T09:05:50.997Z,59.70
2018-09-09T09:08:19.553Z,59.77
2018-09-09T09:10:47.664Z,59.54
2018-09-09T09:13:16.022Z,59.59
2018-09-09T09:15:44.442Z,59.54
2018-09-09T09:18:12.773Z,59.32
2018-09-09T09:20:41.984Z,59.00
2018-09-09T09:23:09.481Z,58.83
2018-09-09T09:25:38.416Z,58.73
2018-09-09T09:28:06.128Z,58.52
2018-09-09T09:30:34.856Z,58.25
2018-09-09T09:33:03.206Z,57.77
2018-09-09T09:35:30.954Z,57.84
2018-09-09T09:37:59.278Z,57.83
2018-09-09T09:40:28.182Z,57.73
2018-09-09T09:42:56.510Z,57.68
2018-09-09T09:45:24.850Z,56.62
2018-09-09T09:47:53.195Z,56.85
2018-09-09T09:50:20.956Z,56.69
2018-09-09T09:52:49.258Z,56.47
2018-09-09T09:55:18.177Z,56.24
2018-09-09T10:00:32.680Z,55.44
2018-09-09T10:03:01.074Z,55.02
2018-09-09T10:05:33.818Z,55.22
2018-09-09T10:08:02.430Z,55.16
2018-09-09T10:10:30.943Z,55.38
2018-09-09T10:12:59.296Z,55.03
2018-09-09T10:15:27.650Z,55.17
2018-09-09T10:17:55.970Z,55.05
2018-09-09T10:20:24.316Z,54.92
2018-09-09T10:23:02.327Z,55.21
2018-09-09T10:28:16.675Z,54.53
2018-09-09T10:30:45.218Z,54.06
2018-09-09T10:33:13.774Z,53.90
2018-09-09T10:35:41.937Z,53.06
2018-09-09T10:38:16.059Z,53.43
2018-09-09T10:40:38.836Z,53.52
2018-09-09T10:43:07.164Z,52.99
2018-09-09T10:45:35.843Z,52.71
2018-09-09T10:48:04.200Z,52.29
2018-09-09T10:50:32.536Z,51.92
2018-09-09T10:53:00.958Z,51.52
2018-09-09T10:55:29.248Z,51.58
2018-09-09T10:57:57.594Z,51.74
2018-09-09T11:00:25.938Z,51.36
2018-09-09T11:03:34.407Z,50.95
2018-09-09T11:05:38.489Z,50.63
2018-09-09T11:08:07.437Z,50.88
2018-09-09T11:10:37.038Z,50.92
2018-09-09T11:13:04.786Z,50.90
2018-09-09T11:15:33.188Z,51.22
2018-09-09T11:18:01.540Z,50.47
2018-09-09T11:20:29.907Z,50.53
2018-09-09T11:22:58.564Z,50.33
2018-09-09T11:25:27.065Z,50.65
2018-09-09T11:27:55.422Z,50.40
2018-09-09T11:30:23.836Z,49.52
2018-09-09T11:32:52.294Z,49.65
2018-09-09T11:35:20.658Z,49.72
2018-09-09T11:37:48.946Z,49.46
2018-09-09T11:40:17.310Z,47.81
2018-09-09T11:42:45.058Z,45.75
2018-09-09T11:45:13.988Z,44.62
2018-09-09T11:47:42.348Z,43.80
2018-09-09T11:50:10.894Z,43.40
2018-09-09T11:52:39.257Z,43.52
2018-09-09T11:55:07.372Z,43.49
2018-09-09T11:57:35.987Z,44.14
2018-09-09T12:00:04.330Z,43.97
2018-09-09T12:02:32.743Z,43.53
2018-09-09T12:05:01.179Z,42.99
2018-09-09T12:07:29.531Z,42.64
2018-09-09T12:09:57.888Z,41.67
2018-09-09T12:12:26.212Z,42.30
2018-09-09T12:14:54.537Z,41.52
2018-09-09T12:17:23.091Z,40.30
2018-09-09T12:19:51.411Z,41.32
2018-09-09T12:22:20.759Z,41.50
2018-09-09T12:24:48.591Z,40.95
2018-09-09T12:27:17.578Z,39.13
2018-09-09T12:29:45.908Z,38.32
2018-09-09T12:32:14.288Z,38.89
2018-09-09T12:34:42.665Z,38.37
2018-09-09T12:37:10.982Z,38.44
2018-09-09T12:39:39.324Z,38.65
2018-09-09T12:42:08.208Z,37.33
2018-09-09T12:44:41.361Z,36.34
2018-09-09T12:47:11.119Z,35.83
2018-09-09T12:49:40.017Z,36.08
2018-09-09T12:52:08.360Z,35.57
2018-09-09T12:54:36.981Z,35.12
2018-09-09T12:57:05.084Z,33.08
2018-09-09T12:59:32.829Z,34.14
2018-09-09T13:02:01.739Z,34.04
2018-09-09T13:04:29.487Z,33.66
2018-09-09T13:06:58.396Z,33.75
2018-09-09T13:09:26.751Z,33.98
2018-09-09T13:11:55.081Z,33.69
2018-09-09T13:14:23.399Z,33.96
2018-09-09T13:16:51.728Z,34.02
2018-09-09T13:19:20.137Z,34.29
2018-09-09T13:21:48.459Z,34.45
2018-09-09T13:24:16.775Z,34.52
2018-09-09T13:26:45.107Z,33.71
2018-09-09T13:29:13.441Z,33.64
2018-09-09T13:31:41.802Z,33.77
2018-09-09T13:34:10.117Z,32.40
2018-09-09T13:36:38.443Z,31.78
2018-09-09T13:39:06.652Z,32.96
2018-09-09T13:41:34.739Z,31.03
2018-09-09T13:44:02.882Z,30.85
2018-09-09T13:46:31.795Z,30.15
2018-09-09T13:49:00.124Z,30.63
2018-09-09T13:51:28.468Z,30.28
2018-09-09T13:53:56.800Z,29.82
2018-09-09T13:56:25.135Z,28.90
2018-09-09T13:58:53.196Z,28.20
2018-09-09T14:01:21.866Z,27.64
2018-09-09T14:03:50.257Z,27.18
2018-09-09T14:06:18.560Z,26.91
2018-09-09T14:08:46.752Z,26.83
2018-09-09T14:11:15.242Z,27.00
2018-09-09T14:13:43.589Z,27.35
2018-09-09T14:16:11.911Z,26.96
2018-09-09T14:18:39.652Z,27.74
2018-09-09T14:21:08.610Z,27.49
2018-09-09T14:23:37.132Z,28.19
2018-09-09T14:26:06.033Z,28.86
2018-09-09T14:28:34.406Z,28.10
2018-09-09T14:31:02.751Z,27.18
2018-09-09T14:33:31.073Z,27.19
2018-09-09T14:35:59.415Z,27.29
2018-09-09T14:38:27.178Z,27.42
2018-09-09T14:40:56.102Z,26.56
2018-09-09T14:43:23.984Z,25.80
2018-09-09T14:45:53.132Z,25.64
2018-09-09T14:48:21.460Z,25.02
2018-09-09T14:50:49.789Z,25.58
2018-09-09T14:53:18.204Z,26.07
2018-09-09T14:55:46.435Z,26.09
2018-09-09T14:58:14.188Z,25.88
2018-09-09T15:00:42.754Z,25.58
2018-09-09T15:03:11.672Z,26.77
2018-09-09T15:05:40.327Z,28.48
2018-09-09T15:08:08.659Z,29.68
2018-09-09T15:10:37.219Z,30.35
2018-09-09T15:13:04.970Z,30.70
2018-09-09T15:15:33.298Z,30.32
2018-09-09T15:18:01.639Z,29.72
2018-09-09T15:20:30.535Z,29.75
2018-09-09T15:22:58.905Z,29.90
2018-09-09T15:25:27.229Z,30.31
2018-09-09T15:27:54.988Z,30.26
2018-09-09T15:30:24.168Z,29.92
2018-09-09T15:32:52.512Z,29.56
2018-09-09T15:35:20.847Z,29.94
2018-09-09T15:37:49.178Z,30.75
2018-09-09T15:40:18.223Z,32.17
2018-09-09T15:42:48.139Z,33.39
2018-09-09T15:45:16.679Z,34.67
2018-09-09T15:47:45.625Z,36.04
2018-09-09T15:50:13.346Z,37.42
2018-09-09T15:52:46.457Z,38.76
2018-09-09T15:55:14.802Z,40.09
2018-09-09T15:57:43.140Z,40.81
2018-09-09T16:00:11.614Z,41.59
2018-09-09T16:02:39.957Z,42.44
2018-09-09T16:05:08.285Z,42.82
2018-09-09T16:07:36.654Z,43.02
2018-09-09T16:10:05.023Z,43.45
2018-09-09T16:12:33.356Z,44.42
2018-09-09T16:15:01.717Z,44.78
2018-09-09T16:17:30.159Z,45.50
2018-09-09T16:19:58.497Z,46.33
2018-09-09T16:22:26.837Z,46.54
2018-09-09T16:24:55.183Z,46.91
2018-09-09T16:27:23.055Z,47.26
2018-09-09T16:29:51.857Z,47.61
2018-09-09T16:32:20.195Z,47.86
2018-09-09T16:34:47.949Z,48.35
2018-09-09T16:37:16.860Z,48.69
2018-09-09T16:39:45.427Z,49.21
2018-09-09T16:42:13.504Z,49.81
2018-09-09T16:44:41.252Z,50.08
2018-09-09T16:47:10.198Z,50.49
2018-09-09T16:49:38.548Z,50.78
2018-09-09T16:52:06.285Z,50.95
2018-09-09T16:54:35.439Z,51.50
2018-09-09T16:57:03.540Z,51.68
2018-09-09T16:59:31.887Z,52.08
2018-09-09T17:02:00.235Z,52.42
2018-09-09T17:04:28.543Z,52.40
2018-09-09T17:06:56.398Z,52.49
2018-09-09T17:09:25.306Z,52.73
2018-09-09T17:11:53.383Z,52.94
2018-09-09T17:14:21.981Z,53.08
2018-09-09T17:16:50.432Z,53.20
2018-09-09T17:19:19.573Z,53.46
2018-09-09T17:21:47.374Z,53.61
2018-09-09T17:24:16.330Z,53.70
2018-09-09T17:26:44.799Z,53.65
2018-09-09T17:29:13.197Z,53.79
2018-09-09T17:31:41.558Z,53.66
2018-09-09T17:34:10.296Z,53.70
2018-09-09T17:36:38.634Z,53.87
2018-09-09T17:39:07.559Z,54.06
2018-09-09T17:41:35.914Z,54.20
2018-09-09T17:44:04.308Z,54.43
2018-09-09T17:46:32.764Z,54.55
2018-09-09T17:49:02.044Z,54.91
2018-09-09T17:51:31.887Z,54.84
2018-09-09T17:54:11.035Z,54.83
2018-09-09T17:56:39.774Z,54.82
2018-09-09T17:59:08.162Z,54.77
2018-09-09T18:01:36.592Z,54.72
2018-09-09T18:04:04.886Z,54.67
2018-09-09T18:06:32.637Z,54.93
2018-09-09T18:09:01.569Z,55.10
2018-09-09T18:11:29.945Z,55.24
2018-09-09T18:13:58.505Z,55.42
2018-09-09T18:16:26.855Z,55.61
2018-09-09T18:18:55.579Z,55.78
2018-09-09T18:21:23.331Z,56.01
2018-09-09T18:23:52.243Z,56.19
2018-09-09T18:26:20.591Z,56.41
2018-09-09T18:28:48.495Z,56.73
2018-09-09T18:31:17.578Z,56.95
2018-09-09T18:33:45.962Z,57.38
2018-09-09T18:36:14.326Z,57.88
2018-09-09T18:38:42.673Z,58.36
2018-09-09T18:41:10.999Z,59.08
2018-09-09T18:43:39.377Z,59.12
2018-09-09T18:46:07.725Z,59.31
2018-09-09T18:48:36.099Z,59.40
2018-09-09T18:51:04.430Z,59.69
2018-09-09T18:53:32.801Z,60.19
2018-09-09T18:56:01.204Z,61.15
2018-09-09T18:58:29.537Z,61.93
2018-09-09T19:00:57.929Z,62.28
2018-09-09T19:03:26.251Z,62.53
2018-09-09T19:05:54.640Z,62.65
2018-09-09T19:08:22.996Z,62.81
2018-09-09T19:10:51.393Z,63.06
2018-09-09T19:13:19.758Z,63.23
2018-09-09T19:15:48.110Z,63.27
2018-09-09T19:18:16.459Z,63.46
2018-09-09T19:20:44.903Z,63.62
2018-09-09T19:23:13.251Z,63.99
2018-09-09T19:25:41.592Z,64.63
2018-09-09T19:28:09.898Z,64.96
2018-09-09T19:30:38.325Z,65.03
2018-09-09T19:33:06.106Z,65.18
2018-09-09T19:35:35.612Z,65.44
2018-09-09T19:38:04.027Z,65.43
2018-09-09T19:40:32.290Z,65.77
2018-09-09T19:43:00.629Z,66.14
2018-09-09T19:45:28.977Z,66.23
2018-09-09T19:47:57.356Z,66.51
2018-09-09T19:50:25.670Z,66.74
2018-09-09T19:52:53.998Z,66.75
2018-09-09T19:55:23.367Z,66.96
2018-09-09T19:57:51.685Z,66.84
2018-09-09T20:02:56.688Z,67.42
2018-09-09T20:05:24.517Z,67.55
2018-09-09T20:07:53.444Z,67.93
2018-09-09T20:10:21.221Z,67.80
2018-09-09T20:12:50.135Z,67.79
2018-09-09T20:15:17.942Z,68.03
2018-09-09T20:17:46.831Z,68.28
2018-09-09T20:20:14.590Z,68.06
2018-09-09T20:22:42.920Z,67.92
2018-09-09T20:25:11.255Z,67.85
2018-09-09T20:27:40.180Z,67.95
2018-09-09T20:30:08.517Z,67.85
2018-09-09T20:32:37.589Z,67.75
2018-09-09T20:35:05.217Z,67.47
2018-09-09T20:37:33.527Z,68.00
2018-09-09T20:40:01.848Z,68.49
2018-09-09T20:42:29.591Z,68.61
2018-09-09T20:44:58.504Z,68.48
2018-09-09T20:47:27.107Z,68.32
2018-09-09T20:49:56.354Z,68.50
2018-09-09T20:52:24.417Z,68.73
2018-09-09T20:54:52.466Z,69.28
2018-09-09T20:57:20.887Z,69.72
2018-09-09T20:59:49.692Z,69.76
2018-09-09T21:02:17.760Z,69.58
2018-09-09T21:04:46.382Z,69.41
2018-09-09T21:07:14.714Z,69.50
2018-09-09T21:09:42.980Z,69.29
2018-09-09T21:12:11.100Z,69.57
2018-09-09T21:14:39.432Z,69.38
2018-09-09T21:17:08.333Z,69.62
2018-09-09T21:19:36.674Z,69.52
2018-09-09T21:22:05.009Z,69.27
2018-09-09T21:24:33.340Z,69.01
2018-09-09T21:27:01.669Z,68.74
2018-09-09T21:29:29.999Z,68.57
2018-09-09T21:31:58.322Z,68.42
2018-09-09T21:34:26.663Z,68.13
2018-09-09T21:36:55.210Z,68.00
2018-09-09T21:39:23.321Z,67.85
2018-09-09T21:41:51.073Z,67.51
2018-09-09T21:44:20.236Z,67.37
2018-09-09T21:46:48.421Z,67.44
2018-09-09T21:49:16.197Z,67.46
2018-09-09T21:51:45.113Z,67.58
2018-09-09T21:54:13.449Z,67.38
2018-09-09T21:56:41.219Z,67.35
2018-09-09T21:59:10.141Z,67.17
2018-09-09T22:01:37.904Z,67.27
2018-09-09T22:04:06.820Z,67.20
2018-09-09T22:06:34.960Z,67.15
2018-09-09T22:09:03.520Z,67.33
2018-09-09T22:11:31.277Z,67.49
2018-09-09T22:13:59.609Z,67.54
2018-09-09T22:16:28.525Z,67.51
2018-09-09T22:18:56.890Z,67.63
2018-09-09T22:21:25.220Z,67.64
2018-09-09T22:23:53.564Z,67.62
2018-09-09T22:26:21.363Z,67.39
2018-09-09T22:28:50.231Z,67.24
2018-09-09T22:31:17.981Z,67.11
2018-09-09T22:33:46.895Z,67.12
2018-09-09T22:36:15.235Z,67.13
2018-09-09T22:38:42.989Z,67.12
2018-09-09T22:41:11.906Z,67.32
2018-09-09T22:43:41.212Z,67.51
2018-09-09T22:46:08.006Z,67.50
2018-09-09T22:48:36.345Z,67.54
2018-09-09T22:51:04.891Z,67.63
2018-09-09T22:53:33.623Z,67.76
2018-09-09T22:56:01.955Z,67.96
2018-09-09T22:58:30.288Z,67.98
2018-09-09T23:00:58.049Z,67.97
2018-09-09T23:03:26.975Z,67.95
2018-09-09T23:05:55.330Z,67.86
2018-09-09T23:08:23.074Z,67.95
2018-09-09T23:10:52.002Z,68.41
2018-09-09T23:13:19.773Z,68.81
2018-09-09T23:15:48.106Z,68.82
2018-09-09T23:18:16.434Z,68.74
2018-09-09T23:20:45.360Z,68.79
2018-09-09T23:23:13.687Z,68.84
2018-09-09T23:25:42.004Z,68.97
2018-09-09T23:28:10.337Z,68.98
2018-09-09T23:30:38.081Z,69.13
2018-09-09T23:33:06.991Z,69.13
2018-09-09T23:35:34.742Z,69.12
2018-09-09T23:38:03.662Z,69.10
2018-09-09T23:40:31.399Z,69.01
2018-09-09T23:43:00.546Z,68.97
2018-09-09T23:45:28.095Z,68.79
2018-09-09T23:47:56.998Z,68.63
2018-09-09T23:50:25.336Z,68.56
2018-09-09T23:52:53.662Z,68.53
2018-09-09T23:55:21.412Z,68.51
2018-09-09T23:57:49.810Z,68.41
